sensor_id;sensor_type;location;lat;lon;timestamp;pressure;altitude;pressure_sealevel;temperature;humidity
39954;BME280;25631;51.516;-0.470;2023-06-10T00:01:09;101118.36;;;18.95;33.01
39954;BME280;25631;51.516;-0.470;2023-06-10T00:03:46;101114.43;;;19.25;33.06
39954;BME280;25631;51.516;-0.470;2023-06-10T00:06:22;101112.55;;;18.99;33.12
39954;BME280;25631;51.516;-0.470;2023-06-10T00:08:58;101112.11;;;19.24;33.10
39954;BME280;25631;51.516;-0.470;2023-06-10T00:11:35;101113.08;;;18.92;33.25
39954;BME280;25631;51.516;-0.470;2023-06-10T00:14:11;101110.64;;;19.10;33.27
39954;BME280;25631;51.516;-0.470;2023-06-10T00:16:48;101108.00;;;18.93;33.39
39954;BME280;25631;51.516;-0.470;2023-06-10T00:19:24;101104.83;;;18.75;33.46
39954;BME280;25631;51.516;-0.470;2023-06-10T00:22:01;101104.79;;;18.48;33.47
39954;BME280;25631;51.516;-0.470;2023-06-10T00:24:37;101104.41;;;18.63;33.52
39954;BME280;25631;51.516;-0.470;2023-06-10T00:27:14;101105.34;;;18.55;33.48
39954;BME280;25631;51.516;-0.470;2023-06-10T00:29:50;101104.73;;;18.53;33.58
39954;BME280;25631;51.516;-0.470;2023-06-10T00:32:27;101105.79;;;18.17;33.65
39954;BME280;25631;51.516;-0.470;2023-06-10T00:35:04;101095.35;;;18.25;33.71
39954;BME280;25631;51.516;-0.470;2023-06-10T00:37:40;101092.45;;;18.01;33.78
39954;BME280;25631;51.516;-0.470;2023-06-10T00:40:17;101094.52;;;18.09;33.77
39954;BME280;25631;51.516;-0.470;2023-06-10T00:42:53;101090.62;;;18.26;33.70
39954;BME280;25631;51.516;-0.470;2023-06-10T00:45:31;101090.16;;;18.09;33.93
39954;BME280;25631;51.516;-0.470;2023-06-10T00:48:08;101092.03;;;18.19;33.94
39954;BME280;25631;51.516;-0.470;2023-06-10T00:50:45;101094.89;;;17.95;33.97
39954;BME280;25631;51.516;-0.470;2023-06-10T00:53:22;101092.21;;;18.09;33.99
39954;BME280;25631;51.516;-0.470;2023-06-10T00:55:59;101096.06;;;17.79;33.94
39954;BME280;25631;51.516;-0.470;2023-06-10T00:58:35;101098.57;;;17.99;33.92
39954;BME280;25631;51.516;-0.470;2023-06-10T01:01:12;101094.48;;;17.73;34.08
39954;BME280;25631;51.516;-0.470;2023-06-10T01:03:49;101095.26;;;17.90;34.23
39954;BME280;25631;51.516;-0.470;2023-06-10T01:06:33;101089.56;;;17.63;34.26
39954;BME280;25631;51.516;-0.470;2023-06-10T01:09:21;101084.64;;;17.74;34.36
39954;BME280;25631;51.516;-0.470;2023-06-10T01:12:05;101084.37;;;17.51;34.51
39954;BME280;25631;51.516;-0.470;2023-06-10T01:14:45;101079.59;;;17.41;34.64
39954;BME280;25631;51.516;-0.470;2023-06-10T01:17:22;101082.03;;;17.27;34.61
39954;BME280;25631;51.516;-0.470;2023-06-10T01:19:59;101081.48;;;17.46;34.59
39954;BME280;25631;51.516;-0.470;2023-06-10T01:22:36;101080.47;;;17.29;34.58
39954;BME280;25631;51.516;-0.470;2023-06-10T01:25:12;101084.08;;;17.08;34.66
39954;BME280;25631;51.516;-0.470;2023-06-10T01:27:50;101084.20;;;17.27;34.80
39954;BME280;25631;51.516;-0.470;2023-06-10T01:30:29;101083.14;;;17.01;34.72
39954;BME280;25631;51.516;-0.470;2023-06-10T01:33:08;101082.41;;;17.31;34.69
39954;BME280;25631;51.516;-0.470;2023-06-10T01:35:46;101082.31;;;17.14;34.75
39954;BME280;25631;51.516;-0.470;2023-06-10T01:38:25;101078.05;;;16.91;34.81
39954;BME280;25631;51.516;-0.470;2023-06-10T01:41:03;101075.69;;;16.95;34.79
39954;BME280;25631;51.516;-0.470;2023-06-10T01:43:43;101074.79;;;16.80;34.90
39954;BME280;25631;51.516;-0.470;2023-06-10T01:46:19;101075.65;;;16.77;34.94
39954;BME280;25631;51.516;-0.470;2023-06-10T01:48:56;101081.47;;;16.99;35.06
39954;BME280;25631;51.516;-0.470;2023-06-10T01:51:32;101078.33;;;16.87;35.14
39954;BME280;25631;51.516;-0.470;2023-06-10T01:54:09;101080.84;;;16.82;35.18
39954;BME280;25631;51.516;-0.470;2023-06-10T01:56:45;101081.70;;;16.66;35.18
39954;BME280;25631;51.516;-0.470;2023-06-10T01:59:22;101081.72;;;16.95;35.16
39954;BME280;25631;51.516;-0.470;2023-06-10T02:01:58;101082.95;;;16.74;35.21
39954;BME280;25631;51.516;-0.470;2023-06-10T02:04:35;101088.00;;;16.38;35.22
39954;BME280;25631;51.516;-0.470;2023-06-10T02:07:11;101087.68;;;16.68;35.27
39954;BME280;25631;51.516;-0.470;2023-06-10T02:09:48;101088.83;;;16.88;35.21
39954;BME280;25631;51.516;-0.470;2023-06-10T02:12:24;101085.89;;;16.88;35.23
39954;BME280;25631;51.516;-0.470;2023-06-10T02:15:00;101087.64;;;16.82;35.33
39954;BME280;25631;51.516;-0.470;2023-06-10T02:17:37;101083.60;;;16.64;35.33
39954;BME280;25631;51.516;-0.470;2023-06-10T02:20:13;101082.93;;;16.57;35.30
39954;BME280;25631;51.516;-0.470;2023-06-10T02:22:50;101082.68;;;16.55;35.28
39954;BME280;25631;51.516;-0.470;2023-06-10T02:25:26;101083.14;;;16.50;35.27
39954;BME280;25631;51.516;-0.470;2023-06-10T02:28:03;101083.46;;;16.46;35.31
39954;BME280;25631;51.516;-0.470;2023-06-10T02:30:41;101077.84;;;16.26;35.27
39954;BME280;25631;51.516;-0.470;2023-06-10T02:33:17;101074.94;;;16.44;35.24
39954;BME280;25631;51.516;-0.470;2023-06-10T02:35:54;101073.75;;;16.37;35.28
39954;BME280;25631;51.516;-0.470;2023-06-10T02:38:31;101073.33;;;16.28;35.43
39954;BME280;25631;51.516;-0.470;2023-06-10T02:41:07;101076.00;;;16.38;35.48
39954;BME280;25631;51.516;-0.470;2023-06-10T02:43:44;101075.56;;;16.25;35.50
39954;BME280;25631;51.516;-0.470;2023-06-10T02:46:20;101073.37;;;16.33;35.50
39954;BME280;25631;51.516;-0.470;2023-06-10T02:48:57;101071.80;;;16.22;35.61
39954;BME280;25631;51.516;-0.470;2023-06-10T02:51:33;101074.45;;;16.10;35.63
39954;BME280;25631;51.516;-0.470;2023-06-10T02:54:10;101077.08;;;16.14;35.63
39954;BME280;25631;51.516;-0.470;2023-06-10T02:56:46;101075.68;;;16.09;35.65
39954;BME280;25631;51.516;-0.470;2023-06-10T02:59:22;101077.31;;;15.88;35.86
39954;BME280;25631;51.516;-0.470;2023-06-10T03:01:59;101077.45;;;15.97;35.76
39954;BME280;25631;51.516;-0.470;2023-06-10T03:04:35;101074.18;;;16.26;35.77
39954;BME280;25631;51.516;-0.470;2023-06-10T03:07:12;101074.91;;;15.78;35.77
39954;BME280;25631;51.516;-0.470;2023-06-10T03:09:49;101076.97;;;15.99;35.76
39954;BME280;25631;51.516;-0.470;2023-06-10T03:12:26;101077.03;;;15.89;35.70
39954;BME280;25631;51.516;-0.470;2023-06-10T03:15:03;101074.62;;;15.80;35.78
39954;BME280;25631;51.516;-0.470;2023-06-10T03:17:39;101071.40;;;16.07;35.92
39954;BME280;25631;51.516;-0.470;2023-06-10T03:20:16;101076.06;;;15.85;35.98
39954;BME280;25631;51.516;-0.470;2023-06-10T03:22:52;101076.74;;;15.85;36.00
39954;BME280;25631;51.516;-0.470;2023-06-10T03:25:28;101071.06;;;16.19;36.01
39954;BME280;25631;51.516;-0.470;2023-06-10T03:28:05;101071.54;;;16.00;36.02
39954;BME280;25631;51.516;-0.470;2023-06-10T03:30:42;101071.80;;;15.86;36.02
39954;BME280;25631;51.516;-0.470;2023-06-10T03:33:18;101068.67;;;15.84;36.04
39954;BME280;25631;51.516;-0.470;2023-06-10T03:35:54;101069.56;;;15.59;36.02
39954;BME280;25631;51.516;-0.470;2023-06-10T03:38:31;101067.13;;;16.09;36.01
39954;BME280;25631;51.516;-0.470;2023-06-10T03:41:08;101065.87;;;15.62;36.15
39954;BME280;25631;51.516;-0.470;2023-06-10T03:43:44;101065.48;;;16.05;36.23
39954;BME280;25631;51.516;-0.470;2023-06-10T03:46:20;101068.18;;;15.60;36.26
39954;BME280;25631;51.516;-0.470;2023-06-10T03:48:57;101068.51;;;16.04;36.27
39954;BME280;25631;51.516;-0.470;2023-06-10T03:51:33;101065.27;;;15.66;36.23
39954;BME280;25631;51.516;-0.470;2023-06-10T03:54:10;101064.33;;;15.81;36.24
39954;BME280;25631;51.516;-0.470;2023-06-10T03:56:46;101070.21;;;16.09;36.20
39954;BME280;25631;51.516;-0.470;2023-06-10T03:59:22;101071.41;;;15.91;36.27
39954;BME280;25631;51.516;-0.470;2023-06-10T04:01:59;101072.39;;;15.75;36.27
39954;BME280;25631;51.516;-0.470;2023-06-10T04:04:35;101075.84;;;15.97;36.26
39954;BME280;25631;51.516;-0.470;2023-06-10T04:07:12;101074.65;;;15.86;36.37
39954;BME280;25631;51.516;-0.470;2023-06-10T04:09:48;101077.38;;;16.04;36.37
39954;BME280;25631;51.516;-0.470;2023-06-10T04:12:25;101076.59;;;15.59;36.36
39954;BME280;25631;51.516;-0.470;2023-06-10T04:15:01;101077.58;;;15.73;36.33
39954;BME280;25631;51.516;-0.470;2023-06-10T04:17:38;101075.24;;;15.80;36.40
39954;BME280;25631;51.516;-0.470;2023-06-10T04:20:14;101074.33;;;15.81;36.32
39954;BME280;25631;51.516;-0.470;2023-06-10T04:22:51;101074.86;;;15.77;36.41
39954;BME280;25631;51.516;-0.470;2023-06-10T04:25:27;101073.45;;;15.59;36.44
39954;BME280;25631;51.516;-0.470;2023-06-10T04:28:04;101072.50;;;15.73;36.51
39954;BME280;25631;51.516;-0.470;2023-06-10T04:30:40;101068.01;;;15.34;36.67
39954;BME280;25631;51.516;-0.470;2023-06-10T04:33:17;101067.18;;;15.52;36.66
39954;BME280;25631;51.516;-0.470;2023-06-10T04:35:53;101067.86;;;15.69;36.61
39954;BME280;25631;51.516;-0.470;2023-06-10T04:38:30;101069.75;;;15.54;36.61
39954;BME280;25631;51.516;-0.470;2023-06-10T04:41:06;101072.42;;;15.45;36.62
39954;BME280;25631;51.516;-0.470;2023-06-10T04:43:42;101074.35;;;15.56;36.62
39954;BME280;25631;51.516;-0.470;2023-06-10T04:46:19;101076.64;;;15.73;36.57
39954;BME280;25631;51.516;-0.470;2023-06-10T04:48:55;101076.61;;;15.84;36.52
39954;BME280;25631;51.516;-0.470;2023-06-10T04:51:32;101073.08;;;15.83;36.42
39954;BME280;25631;51.516;-0.470;2023-06-10T04:54:08;101073.17;;;15.79;36.35
39954;BME280;25631;51.516;-0.470;2023-06-10T04:56:45;101073.99;;;15.62;36.38
39954;BME280;25631;51.516;-0.470;2023-06-10T04:59:21;101074.86;;;15.63;36.38
39954;BME280;25631;51.516;-0.470;2023-06-10T05:01:58;101069.63;;;15.69;36.37
39954;BME280;25631;51.516;-0.470;2023-06-10T05:04:34;101067.10;;;15.75;36.41
39954;BME280;25631;51.516;-0.470;2023-06-10T05:07:12;101064.48;;;15.68;36.47
39954;BME280;25631;51.516;-0.470;2023-06-10T05:09:48;101064.27;;;15.23;36.51
39954;BME280;25631;51.516;-0.470;2023-06-10T05:12:24;101061.43;;;15.61;36.48
39954;BME280;25631;51.516;-0.470;2023-06-10T05:15:01;101063.27;;;15.51;36.45
39954;BME280;25631;51.516;-0.470;2023-06-10T05:17:37;101061.77;;;15.76;36.48
39954;BME280;25631;51.516;-0.470;2023-06-10T05:20:14;101061.75;;;15.70;36.46
39954;BME280;25631;51.516;-0.470;2023-06-10T05:22:50;101065.49;;;15.94;36.44
39954;BME280;25631;51.516;-0.470;2023-06-10T05:25:30;101067.55;;;15.54;36.46
39954;BME280;25631;51.516;-0.470;2023-06-10T05:28:07;101068.83;;;15.74;36.36
39954;BME280;25631;51.516;-0.470;2023-06-10T05:30:45;101068.55;;;15.73;36.36
39954;BME280;25631;51.516;-0.470;2023-06-10T05:33:21;101071.40;;;16.13;36.39
39954;BME280;25631;51.516;-0.470;2023-06-10T05:35:57;101075.08;;;15.98;36.32
39954;BME280;25631;51.516;-0.470;2023-06-10T05:38:34;101073.82;;;15.95;36.34
39954;BME280;25631;51.516;-0.470;2023-06-10T05:41:11;101066.27;;;15.98;36.34
39954;BME280;25631;51.516;-0.470;2023-06-10T05:43:47;101065.76;;;16.35;36.35
39954;BME280;25631;51.516;-0.470;2023-06-10T05:46:23;101065.54;;;15.91;36.29
39954;BME280;25631;51.516;-0.470;2023-06-10T05:49:00;101067.81;;;15.85;36.35
39954;BME280;25631;51.516;-0.470;2023-06-10T05:51:36;101068.73;;;16.08;36.28
39954;BME280;25631;51.516;-0.470;2023-06-10T05:54:13;101069.93;;;16.14;36.27
39954;BME280;25631;51.516;-0.470;2023-06-10T05:56:49;101069.97;;;16.21;36.34
39954;BME280;25631;51.516;-0.470;2023-06-10T05:59:26;101069.48;;;16.32;36.23
39954;BME280;25631;51.516;-0.470;2023-06-10T06:02:03;101069.48;;;16.29;36.20
39954;BME280;25631;51.516;-0.470;2023-06-10T06:04:39;101072.48;;;16.50;36.16
39954;BME280;25631;51.516;-0.470;2023-06-10T06:07:16;101076.62;;;16.44;36.15
39954;BME280;25631;51.516;-0.470;2023-06-10T06:09:52;101078.26;;;16.52;36.11
39954;BME280;25631;51.516;-0.470;2023-06-10T06:12:28;101077.25;;;16.65;36.11
39954;BME280;25631;51.516;-0.470;2023-06-10T06:15:06;101079.93;;;16.49;35.95
39954;BME280;25631;51.516;-0.470;2023-06-10T06:17:42;101085.91;;;16.52;35.91
39954;BME280;25631;51.516;-0.470;2023-06-10T06:20:20;101082.80;;;16.68;35.84
39954;BME280;25631;51.516;-0.470;2023-06-10T06:22:56;101084.57;;;16.79;35.79
39954;BME280;25631;51.516;-0.470;2023-06-10T06:25:33;101084.36;;;16.92;35.70
39954;BME280;25631;51.516;-0.470;2023-06-10T06:28:10;101082.26;;;16.65;35.65
39954;BME280;25631;51.516;-0.470;2023-06-10T06:30:47;101077.48;;;16.77;35.63
39954;BME280;25631;51.516;-0.470;2023-06-10T06:33:23;101078.48;;;16.93;35.61
39954;BME280;25631;51.516;-0.470;2023-06-10T06:36:00;101072.42;;;16.84;35.59
39954;BME280;25631;51.516;-0.470;2023-06-10T06:38:36;101070.63;;;17.19;35.57
39954;BME280;25631;51.516;-0.470;2023-06-10T06:41:13;101074.27;;;17.32;35.54
39954;BME280;25631;51.516;-0.470;2023-06-10T06:43:50;101071.21;;;17.38;35.52
39954;BME280;25631;51.516;-0.470;2023-06-10T06:46:26;101073.29;;;17.36;35.43
39954;BME280;25631;51.516;-0.470;2023-06-10T06:49:03;101079.18;;;17.36;35.32
39954;BME280;25631;51.516;-0.470;2023-06-10T06:51:39;101080.49;;;17.57;35.39
39954;BME280;25631;51.516;-0.470;2023-06-10T06:54:16;101081.07;;;17.52;35.34
39954;BME280;25631;51.516;-0.470;2023-06-10T06:56:53;101083.02;;;17.69;35.51
39954;BME280;25631;51.516;-0.470;2023-06-10T06:59:29;101076.18;;;17.82;35.40
39954;BME280;25631;51.516;-0.470;2023-06-10T07:02:06;101078.93;;;17.69;35.40
39954;BME280;25631;51.516;-0.470;2023-06-10T07:04:43;101073.89;;;17.86;35.20
39954;BME280;25631;51.516;-0.470;2023-06-10T07:07:19;101073.16;;;17.84;35.20
39954;BME280;25631;51.516;-0.470;2023-06-10T07:09:56;101074.33;;;18.01;35.09
39954;BME280;25631;51.516;-0.470;2023-06-10T07:12:32;101079.85;;;18.16;35.07
39954;BME280;25631;51.516;-0.470;2023-06-10T07:15:09;101088.43;;;18.43;35.07
39954;BME280;25631;51.516;-0.470;2023-06-10T07:17:46;101088.54;;;18.26;34.91
39954;BME280;25631;51.516;-0.470;2023-06-10T07:20:23;101087.01;;;18.25;34.84
39954;BME280;25631;51.516;-0.470;2023-06-10T07:23:00;101082.80;;;18.33;34.74
39954;BME280;25631;51.516;-0.470;2023-06-10T07:25:37;101078.52;;;18.22;34.71
39954;BME280;25631;51.516;-0.470;2023-06-10T07:28:13;101076.33;;;18.41;34.63
39954;BME280;25631;51.516;-0.470;2023-06-10T07:30:50;101073.13;;;18.40;34.63
39954;BME280;25631;51.516;-0.470;2023-06-10T07:33:30;101074.90;;;18.93;34.63
39954;BME280;25631;51.516;-0.470;2023-06-10T07:36:06;101075.68;;;18.32;34.38
39954;BME280;25631;51.516;-0.470;2023-06-10T07:38:43;101075.28;;;18.87;34.15
39954;BME280;25631;51.516;-0.470;2023-06-10T07:41:20;101078.16;;;19.01;34.05
39954;BME280;25631;51.516;-0.470;2023-06-10T07:43:57;101082.00;;;19.18;34.01
39954;BME280;25631;51.516;-0.470;2023-06-10T07:46:33;101087.73;;;19.16;33.85
39954;BME280;25631;51.516;-0.470;2023-06-10T07:49:10;101086.01;;;19.01;33.85
39954;BME280;25631;51.516;-0.470;2023-06-10T07:51:48;101084.93;;;19.42;33.72
39954;BME280;25631;51.516;-0.470;2023-06-10T07:54:24;101087.20;;;19.11;33.73
39954;BME280;25631;51.516;-0.470;2023-06-10T07:57:01;101089.73;;;19.62;33.67
39954;BME280;25631;51.516;-0.470;2023-06-10T07:59:38;101089.27;;;19.48;33.69
39954;BME280;25631;51.516;-0.470;2023-06-10T08:02:15;101088.55;;;19.51;33.50
39954;BME280;25631;51.516;-0.470;2023-06-10T08:04:52;101091.01;;;19.43;33.44
39954;BME280;25631;51.516;-0.470;2023-06-10T08:07:28;101091.30;;;19.75;33.40
39954;BME280;25631;51.516;-0.470;2023-06-10T08:10:06;101091.68;;;19.76;33.29
39954;BME280;25631;51.516;-0.470;2023-06-10T08:12:43;101090.69;;;19.77;33.33
39954;BME280;25631;51.516;-0.470;2023-06-10T08:15:19;101089.42;;;19.82;33.30
39954;BME280;25631;51.516;-0.470;2023-06-10T08:17:56;101092.12;;;20.11;33.31
39954;BME280;25631;51.516;-0.470;2023-06-10T08:20:32;101088.38;;;19.97;33.19
39954;BME280;25631;51.516;-0.470;2023-06-10T08:23:09;101089.12;;;20.12;33.22
39954;BME280;25631;51.516;-0.470;2023-06-10T08:25:45;101091.98;;;20.26;33.17
39954;BME280;25631;51.516;-0.470;2023-06-10T08:28:22;101088.98;;;20.28;32.76
39954;BME280;25631;51.516;-0.470;2023-06-10T08:30:58;101088.16;;;20.44;32.57
39954;BME280;25631;51.516;-0.470;2023-06-10T08:33:35;101089.86;;;20.43;32.56
39954;BME280;25631;51.516;-0.470;2023-06-10T08:36:11;101089.99;;;20.68;32.48
39954;BME280;25631;51.516;-0.470;2023-06-10T08:38:48;101091.48;;;20.58;32.38
39954;BME280;25631;51.516;-0.470;2023-06-10T08:41:25;101091.81;;;20.91;32.29
39954;BME280;25631;51.516;-0.470;2023-06-10T08:44:15;101090.95;;;20.74;32.37
39954;BME280;25631;51.516;-0.470;2023-06-10T08:46:53;101088.06;;;20.98;32.21
39954;BME280;25631;51.516;-0.470;2023-06-10T08:49:33;101088.22;;;20.68;32.05
39954;BME280;25631;51.516;-0.470;2023-06-10T08:52:14;101087.72;;;20.97;32.02
39954;BME280;25631;51.516;-0.470;2023-06-10T08:54:56;101088.90;;;21.18;31.99
39954;BME280;25631;51.516;-0.470;2023-06-10T08:57:33;101092.46;;;21.34;31.98
39954;BME280;25631;51.516;-0.470;2023-06-10T09:00:12;101094.61;;;21.46;31.78
39954;BME280;25631;51.516;-0.470;2023-06-10T09:02:48;101093.73;;;21.54;31.62
39954;BME280;25631;51.516;-0.470;2023-06-10T09:05:27;101092.97;;;21.89;31.47
39954;BME280;25631;51.516;-0.470;2023-06-10T09:08:06;101088.49;;;21.86;30.88
39954;BME280;25631;51.516;-0.470;2023-06-10T09:10:42;101087.70;;;21.89;30.72
39954;BME280;25631;51.516;-0.470;2023-06-10T09:13:19;101088.94;;;22.29;30.83
39954;BME280;25631;51.516;-0.470;2023-06-10T09:15:55;101089.20;;;22.10;30.79
39954;BME280;25631;51.516;-0.470;2023-06-10T09:18:32;101091.37;;;21.87;30.73
39954;BME280;25631;51.516;-0.470;2023-06-10T09:21:08;101085.86;;;22.10;30.55
39954;BME280;25631;51.516;-0.470;2023-06-10T09:23:45;101093.24;;;22.36;30.48
39954;BME280;25631;51.516;-0.470;2023-06-10T09:26:28;101082.80;;;22.60;30.24
39954;BME280;25631;51.516;-0.470;2023-06-10T09:29:06;101089.61;;;22.49;30.31
39954;BME280;25631;51.516;-0.470;2023-06-10T09:31:43;101090.47;;;22.60;30.22
39954;BME280;25631;51.516;-0.470;2023-06-10T09:34:25;101089.27;;;22.52;29.98
39954;BME280;25631;51.516;-0.470;2023-06-10T09:37:02;101094.10;;;22.81;29.75
39954;BME280;25631;51.516;-0.470;2023-06-10T09:39:39;101092.55;;;23.22;29.72
39954;BME280;25631;51.516;-0.470;2023-06-10T09:42:16;101093.68;;;23.14;29.78
39954;BME280;25631;51.516;-0.470;2023-06-10T09:44:53;101099.49;;;23.38;29.69
39954;BME280;25631;51.516;-0.470;2023-06-10T09:47:29;101097.37;;;23.46;29.48
39954;BME280;25631;51.516;-0.470;2023-06-10T09:50:06;101095.04;;;23.41;29.51
39954;BME280;25631;51.516;-0.470;2023-06-10T09:52:43;101091.86;;;23.61;29.34
39954;BME280;25631;51.516;-0.470;2023-06-10T09:55:22;101090.25;;;23.72;29.34
39954;BME280;25631;51.516;-0.470;2023-06-10T09:57:59;101093.18;;;23.41;29.11
39954;BME280;25631;51.516;-0.470;2023-06-10T10:00:36;101087.50;;;23.69;29.01
39954;BME280;25631;51.516;-0.470;2023-06-10T10:03:22;101087.91;;;23.93;28.87
39954;BME280;25631;51.516;-0.470;2023-06-10T10:05:59;101080.21;;;23.98;28.89
39954;BME280;25631;51.516;-0.470;2023-06-10T10:08:36;101077.07;;;24.29;28.56
39954;BME280;25631;51.516;-0.470;2023-06-10T10:11:12;101076.92;;;24.38;28.20
39954;BME280;25631;51.516;-0.470;2023-06-10T10:13:51;101074.81;;;24.48;28.02
39954;BME280;25631;51.516;-0.470;2023-06-10T10:16:32;101075.63;;;24.20;27.84
39954;BME280;25631;51.516;-0.470;2023-06-10T10:19:13;101074.49;;;24.77;27.56
39954;BME280;25631;51.516;-0.470;2023-06-10T10:21:53;101073.32;;;24.89;27.65
39954;BME280;25631;51.516;-0.470;2023-06-10T10:24:34;101072.34;;;24.89;27.68
39954;BME280;25631;51.516;-0.470;2023-06-10T10:27:18;101073.44;;;25.21;27.40
39954;BME280;25631;51.516;-0.470;2023-06-10T10:29:55;101071.69;;;25.05;27.45
39954;BME280;25631;51.516;-0.470;2023-06-10T10:32:37;101076.78;;;25.43;26.95
39954;BME280;25631;51.516;-0.470;2023-06-10T10:35:17;101070.10;;;25.40;26.71
39954;BME280;25631;51.516;-0.470;2023-06-10T10:37:55;101063.54;;;25.53;26.64
39954;BME280;25631;51.516;-0.470;2023-06-10T10:40:32;101062.40;;;25.88;26.62
39954;BME280;25631;51.516;-0.470;2023-06-10T10:43:09;101060.58;;;25.68;26.60
39954;BME280;25631;51.516;-0.470;2023-06-10T10:45:58;101062.65;;;25.89;26.06
39954;BME280;25631;51.516;-0.470;2023-06-10T10:48:37;101060.62;;;26.10;25.68
39954;BME280;25631;51.516;-0.470;2023-06-10T10:51:15;101054.19;;;25.93;25.51
39954;BME280;25631;51.516;-0.470;2023-06-10T10:54:12;101055.82;;;26.60;25.27
39954;BME280;25631;51.516;-0.470;2023-06-10T10:57:22;101050.15;;;26.52;24.74
39954;BME280;25631;51.516;-0.470;2023-06-10T10:59:59;101050.53;;;26.61;24.90
39954;BME280;25631;51.516;-0.470;2023-06-10T11:02:37;101049.65;;;26.80;24.70
39954;BME280;25631;51.516;-0.470;2023-06-10T11:05:16;101046.91;;;26.66;24.48
39954;BME280;25631;51.516;-0.470;2023-06-10T11:07:55;101043.72;;;27.07;24.55
39954;BME280;25631;51.516;-0.470;2023-06-10T11:10:32;101035.06;;;27.25;23.70
39954;BME280;25631;51.516;-0.470;2023-06-10T11:13:12;101035.30;;;27.31;23.33
39954;BME280;25631;51.516;-0.470;2023-06-10T11:15:50;101030.93;;;27.30;22.69
39954;BME280;25631;51.516;-0.470;2023-06-10T11:18:28;101035.28;;;27.44;22.87
39954;BME280;25631;51.516;-0.470;2023-06-10T11:21:05;101022.81;;;27.67;22.51
39954;BME280;25631;51.516;-0.470;2023-06-10T11:23:42;101025.80;;;27.60;22.01
39954;BME280;25631;51.516;-0.470;2023-06-10T11:26:20;101021.41;;;27.68;22.08
39954;BME280;25631;51.516;-0.470;2023-06-10T11:29:07;101022.77;;;28.17;21.72
39954;BME280;25631;51.516;-0.470;2023-06-10T11:31:45;101023.81;;;27.82;21.13
39954;BME280;25631;51.516;-0.470;2023-06-10T11:34:25;101021.04;;;27.99;21.15
39954;BME280;25631;51.516;-0.470;2023-06-10T11:37:02;101021.00;;;28.18;20.86
39954;BME280;25631;51.516;-0.470;2023-06-10T11:39:39;101018.26;;;28.29;20.93
39954;BME280;25631;51.516;-0.470;2023-06-10T11:42:16;101015.61;;;28.46;20.44
39954;BME280;25631;51.516;-0.470;2023-06-10T11:44:54;101015.07;;;28.98;20.60
39954;BME280;25631;51.516;-0.470;2023-06-10T11:47:30;101021.45;;;28.69;20.71
39954;BME280;25631;51.516;-0.470;2023-06-10T11:50:07;101018.51;;;28.98;20.45
39954;BME280;25631;51.516;-0.470;2023-06-10T11:52:44;101015.96;;;28.95;20.04
39954;BME280;25631;51.516;-0.470;2023-06-10T11:55:21;101016.79;;;29.27;20.07
39954;BME280;25631;51.516;-0.470;2023-06-10T11:57:57;101013.49;;;29.00;19.85
39954;BME280;25631;51.516;-0.470;2023-06-10T12:00:34;101012.16;;;29.17;19.93
39954;BME280;25631;51.516;-0.470;2023-06-10T12:03:10;101010.62;;;29.40;19.35
39954;BME280;25631;51.516;-0.470;2023-06-10T12:05:56;101010.33;;;29.46;19.40
39954;BME280;25631;51.516;-0.470;2023-06-10T12:08:33;101016.11;;;29.62;19.17
39954;BME280;25631;51.516;-0.470;2023-06-10T12:11:17;101003.22;;;29.53;19.11
39954;BME280;25631;51.516;-0.470;2023-06-10T12:13:54;101002.93;;;29.47;19.04
39954;BME280;25631;51.516;-0.470;2023-06-10T12:16:30;101010.02;;;29.74;19.08
39954;BME280;25631;51.516;-0.470;2023-06-10T12:19:07;101010.23;;;29.62;19.42
39954;BME280;25631;51.516;-0.470;2023-06-10T12:21:44;101004.03;;;30.14;19.21
39954;BME280;25631;51.516;-0.470;2023-06-10T12:24:21;101001.35;;;30.13;19.42
39954;BME280;25631;51.516;-0.470;2023-06-10T12:26:57;101000.32;;;30.02;19.47
39954;BME280;25631;51.516;-0.470;2023-06-10T12:29:34;100996.78;;;30.19;18.99
39954;BME280;25631;51.516;-0.470;2023-06-10T12:32:10;100990.46;;;30.35;19.15
39954;BME280;25631;51.516;-0.470;2023-06-10T12:34:47;100989.90;;;30.56;19.33
39954;BME280;25631;51.516;-0.470;2023-06-10T12:37:23;100992.53;;;30.73;19.28
39954;BME280;25631;51.516;-0.470;2023-06-10T12:40:01;100987.72;;;30.82;18.93
39954;BME280;25631;51.516;-0.470;2023-06-10T12:42:38;100989.63;;;30.79;19.03
39954;BME280;25631;51.516;-0.470;2023-06-10T12:45:14;100991.96;;;30.84;19.35
39954;BME280;25631;51.516;-0.470;2023-06-10T12:47:51;100989.61;;;30.99;19.05
39954;BME280;25631;51.516;-0.470;2023-06-10T12:50:28;100987.72;;;31.00;18.56
39954;BME280;25631;51.516;-0.470;2023-06-10T12:53:05;100989.36;;;31.21;18.79
39954;BME280;25631;51.516;-0.470;2023-06-10T12:55:42;100980.11;;;31.53;19.05
39954;BME280;25631;51.516;-0.470;2023-06-10T12:58:20;100983.94;;;31.59;18.76
39954;BME280;25631;51.516;-0.470;2023-06-10T13:00:57;100978.44;;;31.66;18.43
39954;BME280;25631;51.516;-0.470;2023-06-10T13:03:33;100979.87;;;31.70;18.23
39954;BME280;25631;51.516;-0.470;2023-06-10T13:06:10;100975.27;;;31.58;17.87
39954;BME280;25631;51.516;-0.470;2023-06-10T13:08:47;100979.31;;;31.84;18.19
39954;BME280;25631;51.516;-0.470;2023-06-10T13:11:23;100979.21;;;31.98;17.79
39954;BME280;25631;51.516;-0.470;2023-06-10T13:14:00;100980.51;;;31.98;18.12
39954;BME280;25631;51.516;-0.470;2023-06-10T13:16:36;100980.97;;;31.57;18.22
39954;BME280;25631;51.516;-0.470;2023-06-10T13:19:18;100979.86;;;31.58;18.28
39954;BME280;25631;51.516;-0.470;2023-06-10T13:21:54;100981.68;;;31.69;18.16
39954;BME280;25631;51.516;-0.470;2023-06-10T13:24:31;100978.34;;;31.77;18.26
39954;BME280;25631;51.516;-0.470;2023-06-10T13:27:08;100974.07;;;31.68;18.28
39954;BME280;25631;51.516;-0.470;2023-06-10T13:29:45;100969.31;;;31.76;18.29
39954;BME280;25631;51.516;-0.470;2023-06-10T13:32:21;100968.11;;;31.48;18.29